sensor_id;sensor_type;location;lat;lon;timestamp;temperature;humidity
11221;DHT22;8517;53.546;10.104;2023-04-25T00:02:10;10.80;99.90
11221;DHT22;8517;53.546;10.104;2023-04-25T00:04:37;10.80;99.90
11221;DHT22;8517;53.546;10.104;2023-04-25T00:07:04;10.80;99.90
11221;DHT22;8517;53.546;10.104;2023-04-25T00:09:32;10.80;99.90
11221;DHT22;8517;53.546;10.104;2023-04-25T00:11:59;10.80;99.90
11221;DHT22;8517;53.546;10.104;2023-04-25T00:14:28;10.80;99.90
11221;DHT22;8517;53.546;10.104;2023-04-25T00:16:55;10.80;99.90
11221;DHT22;8517;53.546;10.104;2023-04-25T00:19:22;10.80;99.90
11221;DHT22;8517;53.546;10.104;2023-04-25T00:21:48;10.80;99.90
11221;DHT22;8517;53.546;10.104;2023-04-25T00:24:15;10.80;99.90
11221;DHT22;8517;53.546;10.104;2023-04-25T00:26:42;10.80;99.90
11221;DHT22;8517;53.546;10.104;2023-04-25T00:29:09;10.80;99.90
11221;DHT22;8517;53.546;10.104;2023-04-25T00:31:37;10.80;99.90
11221;DHT22;8517;53.546;10.104;2023-04-25T00:34:06;10.80;99.90
11221;DHT22;8517;53.546;10.104;2023-04-25T00:36:33;10.80;99.90
11221;DHT22;8517;53.546;10.104;2023-04-25T00:39:00;10.80;99.90
11221;DHT22;8517;53.546;10.104;2023-04-25T00:41:28;10.80;99.90
11221;DHT22;8517;53.546;10.104;2023-04-25T00:43:56;10.80;99.90
11221;DHT22;8517;53.546;10.104;2023-04-25T00:46:23;10.80;99.90
11221;DHT22;8517;53.546;10.104;2023-04-25T00:48:51;10.80;99.90
11221;DHT22;8517;53.546;10.104;2023-04-25T00:51:20;10.80;99.90
11221;DHT22;8517;53.546;10.104;2023-04-25T00:53:48;10.80;99.90
11221;DHT22;8517;53.546;10.104;2023-04-25T00:56:16;10.80;99.90
11221;DHT22;8517;53.546;10.104;2023-04-25T00:58:43;10.80;99.90
11221;DHT22;8517;53.546;10.104;2023-04-25T01:01:11;10.80;99.90
11221;DHT22;8517;53.546;10.104;2023-04-25T01:03:39;10.80;99.90
11221;DHT22;8517;53.546;10.104;2023-04-25T01:06:10;10.80;99.90
11221;DHT22;8517;53.546;10.104;2023-04-25T01:08:37;10.80;99.90
11221;DHT22;8517;53.546;10.104;2023-04-25T01:11:05;10.80;99.90
11221;DHT22;8517;53.546;10.104;2023-04-25T01:13:32;10.70;99.90
11221;DHT22;8517;53.546;10.104;2023-04-25T01:15:59;10.70;99.90
11221;DHT22;8517;53.546;10.104;2023-04-25T01:18:26;10.70;99.90
11221;DHT22;8517;53.546;10.104;2023-04-25T01:20:54;10.70;99.90
11221;DHT22;8517;53.546;10.104;2023-04-25T01:23:22;10.70;99.90
11221;DHT22;8517;53.546;10.104;2023-04-25T01:25:49;10.60;99.90
11221;DHT22;8517;53.546;10.104;2023-04-25T01:28:17;10.70;99.90
11221;DHT22;8517;53.546;10.104;2023-04-25T01:30:44;10.70;99.90
11221;DHT22;8517;53.546;10.104;2023-04-25T01:33:12;10.70;99.90
11221;DHT22;8517;53.546;10.104;2023-04-25T01:35:40;10.70;99.90
11221;DHT22;8517;53.546;10.104;2023-04-25T01:38:16;10.70;99.90
11221;DHT22;8517;53.546;10.104;2023-04-25T01:40:45;10.60;99.90
11221;DHT22;8517;53.546;10.104;2023-04-25T01:43:13;10.60;99.90
11221;DHT22;8517;53.546;10.104;2023-04-25T01:45:40;10.60;99.90
11221;DHT22;8517;53.546;10.104;2023-04-25T01:48:07;10.60;99.90
11221;DHT22;8517;53.546;10.104;2023-04-25T01:50:34;10.60;99.90
11221;DHT22;8517;53.546;10.104;2023-04-25T01:53:00;10.60;99.90
11221;DHT22;8517;53.546;10.104;2023-04-25T01:55:28;10.60;99.90
11221;DHT22;8517;53.546;10.104;2023-04-25T01:57:59;10.60;99.90
11221;DHT22;8517;53.546;10.104;2023-04-25T02:00:27;10.50;99.90
11221;DHT22;8517;53.546;10.104;2023-04-25T02:02:57;10.60;99.90
11221;DHT22;8517;53.546;10.104;2023-04-25T02:05:24;10.60;99.90
11221;DHT22;8517;53.546;10.104;2023-04-25T02:07:51;10.50;99.90
11221;DHT22;8517;53.546;10.104;2023-04-25T02:10:18;10.50;99.90
11221;DHT22;8517;53.546;10.104;2023-04-25T02:12:45;10.50;99.90
11221;DHT22;8517;53.546;10.104;2023-04-25T02:15:13;10.50;99.90
11221;DHT22;8517;53.546;10.104;2023-04-25T02:17:40;10.50;99.90
11221;DHT22;8517;53.546;10.104;2023-04-25T02:20:07;10.50;99.90
11221;DHT22;8517;53.546;10.104;2023-04-25T02:22:34;10.50;99.90
11221;DHT22;8517;53.546;10.104;2023-04-25T02:25:01;10.50;99.90
11221;DHT22;8517;53.546;10.104;2023-04-25T02:27:30;10.40;99.90
11221;DHT22;8517;53.546;10.104;2023-04-25T02:29:56;10.40;99.90
11221;DHT22;8517;53.546;10.104;2023-04-25T02:32:25;10.40;99.90
11221;DHT22;8517;53.546;10.104;2023-04-25T02:34:52;10.40;99.90
11221;DHT22;8517;53.546;10.104;2023-04-25T02:37:19;10.40;99.90
11221;DHT22;8517;53.546;10.104;2023-04-25T02:39:46;10.30;99.90
11221;DHT22;8517;53.546;10.104;2023-04-25T02:42:12;10.30;99.90
11221;DHT22;8517;53.546;10.104;2023-04-25T02:44:39;10.30;99.90
11221;DHT22;8517;53.546;10.104;2023-04-25T02:47:06;10.30;99.90
11221;DHT22;8517;53.546;10.104;2023-04-25T02:49:34;10.30;99.90
11221;DHT22;8517;53.546;10.104;2023-04-25T02:52:01;10.20;99.90
11221;DHT22;8517;53.546;10.104;2023-04-25T02:54:28;10.30;99.90
11221;DHT22;8517;53.546;10.104;2023-04-25T02:56:55;10.20;99.90
11221;DHT22;8517;53.546;10.104;2023-04-25T02:59:21;10.30;99.90
11221;DHT22;8517;53.546;10.104;2023-04-25T03:01:48;10.20;99.90
11221;DHT22;8517;53.546;10.104;2023-04-25T03:04:16;10.30;99.90
11221;DHT22;8517;53.546;10.104;2023-04-25T03:06:45;10.20;99.90
11221;DHT22;8517;53.546;10.104;2023-04-25T03:09:12;10.30;99.90
11221;DHT22;8517;53.546;10.104;2023-04-25T03:11:39;10.30;99.90
11221;DHT22;8517;53.546;10.104;2023-04-25T03:14:06;10.20;99.90
11221;DHT22;8517;53.546;10.104;2023-04-25T03:16:32;10.20;99.90
11221;DHT22;8517;53.546;10.104;2023-04-25T03:19:00;10.20;99.90
11221;DHT22;8517;53.546;10.104;2023-04-25T03:21:26;10.20;99.90
11221;DHT22;8517;53.546;10.104;2023-04-25T03:23:55;10.20;99.90
11221;DHT22;8517;53.546;10.104;2023-04-25T03:26:21;10.10;99.90
11221;DHT22;8517;53.546;10.104;2023-04-25T03:28:48;10.10;99.90
11221;DHT22;8517;53.546;10.104;2023-04-25T03:31:15;10.00;99.90
11221;DHT22;8517;53.546;10.104;2023-04-25T03:33:42;10.00;99.90
11221;DHT22;8517;53.546;10.104;2023-04-25T03:36:09;9.90;99.90
11221;DHT22;8517;53.546;10.104;2023-04-25T03:38:36;9.90;99.90
11221;DHT22;8517;53.546;10.104;2023-04-25T03:41:04;9.80;99.90
11221;DHT22;8517;53.546;10.104;2023-04-25T03:43:31;9.80;99.90
11221;DHT22;8517;53.546;10.104;2023-04-25T03:45:57;9.70;99.90
11221;DHT22;8517;53.546;10.104;2023-04-25T03:48:25;9.70;99.90
11221;DHT22;8517;53.546;10.104;2023-04-25T03:50:52;9.70;99.90
11221;DHT22;8517;53.546;10.104;2023-04-25T03:53:19;9.60;99.90
11221;DHT22;8517;53.546;10.104;2023-04-25T03:55:45;9.50;99.90
11221;DHT22;8517;53.546;10.104;2023-04-25T03:58:13;9.50;99.90
11221;DHT22;8517;53.546;10.104;2023-04-25T04:00:40;9.50;99.90
11221;DHT22;8517;53.546;10.104;2023-04-25T04:03:07;9.50;99.90
11221;DHT22;8517;53.546;10.104;2023-04-25T04:05:34;9.50;99.90
11221;DHT22;8517;53.546;10.104;2023-04-25T04:08:01;9.50;99.90
11221;DHT22;8517;53.546;10.104;2023-04-25T04:10:27;9.50;99.90
11221;DHT22;8517;53.546;10.104;2023-04-25T04:12:54;9.50;99.90
11221;DHT22;8517;53.546;10.104;2023-04-25T04:15:23;9.50;99.90
11221;DHT22;8517;53.546;10.104;2023-04-25T04:17:50;9.50;99.90
11221;DHT22;8517;53.546;10.104;2023-04-25T04:20:16;9.50;99.90
11221;DHT22;8517;53.546;10.104;2023-04-25T04:22:43;9.50;99.90
11221;DHT22;8517;53.546;10.104;2023-04-25T04:25:10;9.50;99.90
11221;DHT22;8517;53.546;10.104;2023-04-25T04:27:38;9.50;99.90
11221;DHT22;8517;53.546;10.104;2023-04-25T04:30:07;9.50;99.90
11221;DHT22;8517;53.546;10.104;2023-04-25T04:32:35;9.60;99.90
11221;DHT22;8517;53.546;10.104;2023-04-25T04:35:03;9.50;99.90
11221;DHT22;8517;53.546;10.104;2023-04-25T04:37:30;9.50;99.90
11221;DHT22;8517;53.546;10.104;2023-04-25T04:39:58;9.60;99.90
11221;DHT22;8517;53.546;10.104;2023-04-25T04:42:24;9.50;99.90
11221;DHT22;8517;53.546;10.104;2023-04-25T04:44:51;9.50;99.90
11221;DHT22;8517;53.546;10.104;2023-04-25T04:47:20;9.50;99.90
11221;DHT22;8517;53.546;10.104;2023-04-25T04:49:50;9.50;99.90
11221;DHT22;8517;53.546;10.104;2023-04-25T04:52:17;9.60;99.90
11221;DHT22;8517;53.546;10.104;2023-04-25T04:54:43;9.60;99.90
11221;DHT22;8517;53.546;10.104;2023-04-25T04:57:11;9.60;99.90
11221;DHT22;8517;53.546;10.104;2023-04-25T04:59:37;9.70;99.90
11221;DHT22;8517;53.546;10.104;2023-04-25T05:02:04;9.70;99.90
11221;DHT22;8517;53.546;10.104;2023-04-25T05:04:31;9.70;99.90
11221;DHT22;8517;53.546;10.104;2023-04-25T05:06:59;9.70;99.90
11221;DHT22;8517;53.546;10.104;2023-04-25T05:09:26;9.70;99.90
11221;DHT22;8517;53.546;10.104;2023-04-25T05:11:53;9.70;99.90
11221;DHT22;8517;53.546;10.104;2023-04-25T05:14:20;9.80;99.90
11221;DHT22;8517;53.546;10.104;2023-04-25T05:16:47;9.80;99.90
11221;DHT22;8517;53.546;10.104;2023-04-25T05:19:14;9.80;99.90
11221;DHT22;8517;53.546;10.104;2023-04-25T05:21:41;9.80;99.90
11221;DHT22;8517;53.546;10.104;2023-04-25T05:24:09;9.80;99.90
11221;DHT22;8517;53.546;10.104;2023-04-25T05:26:37;9.80;99.90
11221;DHT22;8517;53.546;10.104;2023-04-25T05:29:04;9.80;99.90
11221;DHT22;8517;53.546;10.104;2023-04-25T05:31:31;9.80;99.90
11221;DHT22;8517;53.546;10.104;2023-04-25T05:33:57;9.70;99.90
11221;DHT22;8517;53.546;10.104;2023-04-25T05:36:24;9.70;99.90
11221;DHT22;8517;53.546;10.104;2023-04-25T05:38:51;9.70;99.90
11221;DHT22;8517;53.546;10.104;2023-04-25T05:41:19;9.80;99.90
11221;DHT22;8517;53.546;10.104;2023-04-25T05:43:46;9.70;99.90
11221;DHT22;8517;53.546;10.104;2023-04-25T05:46:15;9.70;99.90
11221;DHT22;8517;53.546;10.104;2023-04-25T05:48:42;9.80;99.90
11221;DHT22;8517;53.546;10.104;2023-04-25T05:51:09;9.70;99.90
11221;DHT22;8517;53.546;10.104;2023-04-25T05:53:36;9.80;99.90
11221;DHT22;8517;53.546;10.104;2023-04-25T05:56:03;9.80;99.90
11221;DHT22;8517;53.546;10.104;2023-04-25T05:58:31;9.80;99.90
11221;DHT22;8517;53.546;10.104;2023-04-25T06:00:58;9.80;99.90
11221;DHT22;8517;53.546;10.104;2023-04-25T06:03:25;9.80;99.90
11221;DHT22;8517;53.546;10.104;2023-04-25T06:05:51;9.90;99.90
11221;DHT22;8517;53.546;10.104;2023-04-25T06:08:18;9.90;99.90
11221;DHT22;8517;53.546;10.104;2023-04-25T06:10:45;10.00;99.90
11221;DHT22;8517;53.546;10.104;2023-04-25T06:13:12;10.00;99.90
11221;DHT22;8517;53.546;10.104;2023-04-25T06:15:40;10.10;99.90
11221;DHT22;8517;53.546;10.104;2023-04-25T06:18:07;10.10;99.90
11221;DHT22;8517;53.546;10.104;2023-04-25T06:20:33;10.20;99.90
11221;DHT22;8517;53.546;10.104;2023-04-25T06:23:00;10.30;99.90
11221;DHT22;8517;53.546;10.104;2023-04-25T06:25:27;10.30;99.90
11221;DHT22;8517;53.546;10.104;2023-04-25T06:27:54;10.40;99.90
11221;DHT22;8517;53.546;10.104;2023-04-25T06:30:21;10.50;99.90
11221;DHT22;8517;53.546;10.104;2023-04-25T06:32:52;10.50;99.90
11221;DHT22;8517;53.546;10.104;2023-04-25T06:35:19;10.60;99.90
11221;DHT22;8517;53.546;10.104;2023-04-25T06:37:46;10.70;99.90
11221;DHT22;8517;53.546;10.104;2023-04-25T06:40:13;10.70;99.90
11221;DHT22;8517;53.546;10.104;2023-04-25T06:42:40;10.70;99.90
11221;DHT22;8517;53.546;10.104;2023-04-25T06:45:08;10.60;99.90
11221;DHT22;8517;53.546;10.104;2023-04-25T06:47:35;10.60;99.90
11221;DHT22;8517;53.546;10.104;2023-04-25T06:50:04;10.60;99.90
11221;DHT22;8517;53.546;10.104;2023-04-25T06:52:31;10.60;99.90
11221;DHT22;8517;53.546;10.104;2023-04-25T06:54:58;10.60;99.90
11221;DHT22;8517;53.546;10.104;2023-04-25T06:57:25;10.60;99.90
11221;DHT22;8517;53.546;10.104;2023-04-25T06:59:52;10.60;99.90
11221;DHT22;8517;53.546;10.104;2023-04-25T07:02:19;10.70;99.90
11221;DHT22;8517;53.546;10.104;2023-04-25T07:04:47;10.70;99.90
11221;DHT22;8517;53.546;10.104;2023-04-25T07:07:15;10.80;99.90
11221;DHT22;8517;53.546;10.104;2023-04-25T07:09:42;10.80;99.90
11221;DHT22;8517;53.546;10.104;2023-04-25T07:12:09;10.90;99.90
11221;DHT22;8517;53.546;10.104;2023-04-25T07:14:36;11.00;99.90
11221;DHT22;8517;53.546;10.104;2023-04-25T07:17:03;11.10;99.90
11221;DHT22;8517;53.546;10.104;2023-04-25T07:19:32;11.20;99.90
11221;DHT22;8517;53.546;10.104;2023-04-25T07:21:58;11.20;99.90
11221;DHT22;8517;53.546;10.104;2023-04-25T07:24:27;11.30;99.90
11221;DHT22;8517;53.546;10.104;2023-04-25T07:26:54;11.30;99.90
11221;DHT22;8517;53.546;10.104;2023-04-25T07:29:20;11.30;99.90
11221;DHT22;8517;53.546;10.104;2023-04-25T07:31:47;11.30;99.90
11221;DHT22;8517;53.546;10.104;2023-04-25T07:34:14;11.40;99.90
11221;DHT22;8517;53.546;10.104;2023-04-25T07:36:41;11.40;99.90
11221;DHT22;8517;53.546;10.104;2023-04-25T07:39:07;11.40;99.90
11221;DHT22;8517;53.546;10.104;2023-04-25T07:41:36;11.30;99.90
11221;DHT22;8517;53.546;10.104;2023-04-25T07:44:03;11.30;99.90
11221;DHT22;8517;53.546;10.104;2023-04-25T07:46:30;11.20;99.90
11221;DHT22;8517;53.546;10.104;2023-04-25T07:48:57;11.20;99.90
11221;DHT22;8517;53.546;10.104;2023-04-25T07:51:23;11.10;99.90
11221;DHT22;8517;53.546;10.104;2023-04-25T07:53:51;11.10;99.90
11221;DHT22;8517;53.546;10.104;2023-04-25T07:56:18;11.10;99.90
11221;DHT22;8517;53.546;10.104;2023-04-25T07:58:46;11.10;99.90
11221;DHT22;8517;53.546;10.104;2023-04-25T08:01:13;11.20;99.90
11221;DHT22;8517;53.546;10.104;2023-04-25T08:03:39;11.20;99.90
11221;DHT22;8517;53.546;10.104;2023-04-25T08:06:06;11.40;99.90
11221;DHT22;8517;53.546;10.104;2023-04-25T08:08:33;11.60;99.90
11221;DHT22;8517;53.546;10.104;2023-04-25T08:11:00;11.70;99.90
11221;DHT22;8517;53.546;10.104;2023-04-25T08:13:27;11.90;99.90
11221;DHT22;8517;53.546;10.104;2023-04-25T08:15:55;12.20;99.90
11221;DHT22;8517;53.546;10.104;2023-04-25T08:18:22;12.40;99.90
11221;DHT22;8517;53.546;10.104;2023-04-25T08:20:49;12.60;99.90
11221;DHT22;8517;53.546;10.104;2023-04-25T08:23:16;12.70;99.90
11221;DHT22;8517;53.546;10.104;2023-04-25T08:25:42;12.80;99.90
11221;DHT22;8517;53.546;10.104;2023-04-25T08:28:09;12.70;99.90
11221;DHT22;8517;53.546;10.104;2023-04-25T08:30:36;12.70;99.90
11221;DHT22;8517;53.546;10.104;2023-04-25T08:33:04;12.60;99.90
11221;DHT22;8517;53.546;10.104;2023-04-25T08:35:31;12.50;99.90
11221;DHT22;8517;53.546;10.104;2023-04-25T08:37:59;12.50;99.90
11221;DHT22;8517;53.546;10.104;2023-04-25T08:40:27;12.40;99.90
11221;DHT22;8517;53.546;10.104;2023-04-25T08:42:57;12.40;99.90
11221;DHT22;8517;53.546;10.104;2023-04-25T08:45:25;12.30;99.90
11221;DHT22;8517;53.546;10.104;2023-04-25T08:47:53;12.30;99.90
11221;DHT22;8517;53.546;10.104;2023-04-25T08:50:23;12.40;99.90
11221;DHT22;8517;53.546;10.104;2023-04-25T08:52:53;12.40;99.90
11221;DHT22;8517;53.546;10.104;2023-04-25T08:55:21;12.40;99.90
11221;DHT22;8517;53.546;10.104;2023-04-25T08:57:48;12.40;99.90
11221;DHT22;8517;53.546;10.104;2023-04-25T09:00:16;12.40;99.90
11221;DHT22;8517;53.546;10.104;2023-04-25T09:02:45;12.40;99.90
11221;DHT22;8517;53.546;10.104;2023-04-25T09:05:14;12.40;99.90
11221;DHT22;8517;53.546;10.104;2023-04-25T09:07:42;12.50;99.90
11221;DHT22;8517;53.546;10.104;2023-04-25T09:10:09;12.50;99.90
11221;DHT22;8517;53.546;10.104;2023-04-25T09:12:36;12.60;99.90
11221;DHT22;8517;53.546;10.104;2023-04-25T09:15:07;12.70;99.90
11221;DHT22;8517;53.546;10.104;2023-04-25T09:17:35;12.80;99.90
11221;DHT22;8517;53.546;10.104;2023-04-25T09:20:07;12.90;99.90
11221;DHT22;8517;53.546;10.104;2023-04-25T09:22:34;13.00;99.90
11221;DHT22;8517;53.546;10.104;2023-04-25T09:25:07;13.00;99.90
11221;DHT22;8517;53.546;10.104;2023-04-25T09:27:34;13.10;99.90
11221;DHT22;8517;53.546;10.104;2023-04-25T09:30:02;13.10;99.90
11221;DHT22;8517;53.546;10.104;2023-04-25T09:32:30;13.00;99.90
11221;DHT22;8517;53.546;10.104;2023-04-25T09:34:57;12.90;99.90
11221;DHT22;8517;53.546;10.104;2023-04-25T09:37:25;12.90;99.90
11221;DHT22;8517;53.546;10.104;2023-04-25T09:39:54;12.80;99.90
11221;DHT22;8517;53.546;10.104;2023-04-25T09:42:24;12.90;99.90
11221;DHT22;8517;53.546;10.104;2023-04-25T09:44:53;12.90;99.90
11221;DHT22;8517;53.546;10.104;2023-04-25T09:47:21;13.10;99.90
11221;DHT22;8517;53.546;10.104;2023-04-25T09:49:50;13.20;99.90
11221;DHT22;8517;53.546;10.104;2023-04-25T09:52:19;13.40;99.90
11221;DHT22;8517;53.546;10.104;2023-04-25T09:54:46;13.40;99.90
11221;DHT22;8517;53.546;10.104;2023-04-25T09:57:17;13.30;99.90
11221;DHT22;8517;53.546;10.104;2023-04-25T09:59:47;13.10;99.90
11221;DHT22;8517;53.546;10.104;2023-04-25T10:02:16;12.90;99.90
11221;DHT22;8517;53.546;10.104;2023-04-25T10:04:45;12.80;99.90
11221;DHT22;8517;53.546;10.104;2023-04-25T10:07:16;12.80;99.90
11221;DHT22;8517;53.546;10.104;2023-04-25T10:09:47;12.80;99.90
11221;DHT22;8517;53.546;10.104;2023-04-25T10:12:16;12.80;99.90
11221;DHT22;8517;53.546;10.104;2023-04-25T10:14:43;12.90;99.90
11221;DHT22;8517;53.546;10.104;2023-04-25T10:17:12;13.00;99.90
11221;DHT22;8517;53.546;10.104;2023-04-25T10:19:39;13.10;99.90
11221;DHT22;8517;53.546;10.104;2023-04-25T10:22:08;13.20;99.90
11221;DHT22;8517;53.546;10.104;2023-04-25T10:24:39;13.40;99.90
11221;DHT22;8517;53.546;10.104;2023-04-25T10:27:06;13.50;99.90
11221;DHT22;8517;53.546;10.104;2023-04-25T10:29:34;13.60;99.90
11221;DHT22;8517;53.546;10.104;2023-04-25T10:32:02;13.80;99.90
11221;DHT22;8517;53.546;10.104;2023-04-25T10:34:40;13.90;99.90
11221;DHT22;8517;53.546;10.104;2023-04-25T10:37:09;14.00;99.90
11221;DHT22;8517;53.546;10.104;2023-04-25T10:39:38;14.10;99.90
11221;DHT22;8517;53.546;10.104;2023-04-25T10:42:05;14.10;99.90
11221;DHT22;8517;53.546;10.104;2023-04-25T10:44:33;14.20;99.90
11221;DHT22;8517;53.546;10.104;2023-04-25T10:47:01;14.10;99.90
11221;DHT22;8517;53.546;10.104;2023-04-25T10:49:30;14.20;99.90
11221;DHT22;8517;53.546;10.104;2023-04-25T10:52:19;14.30;99.90
11221;DHT22;8517;53.546;10.104;2023-04-25T10:54:52;14.40;99.90
11221;DHT22;8517;53.546;10.104;2023-04-25T10:57:30;14.40;99.90
11221;DHT22;8517;53.546;10.104;2023-04-25T11:00:12;14.50;99.90
11221;DHT22;8517;53.546;10.104;2023-04-25T11:02:45;14.50;99.90
11221;DHT22;8517;53.546;10.104;2023-04-25T11:05:20;14.60;99.90
11221;DHT22;8517;53.546;10.104;2023-04-25T11:07:51;14.70;99.90
11221;DHT22;8517;53.546;10.104;2023-04-25T11:10:19;14.70;99.90
11221;DHT22;8517;53.546;10.104;2023-04-25T11:12:46;14.70;99.90
11221;DHT22;8517;53.546;10.104;2023-04-25T11:15:13;14.60;99.90
11221;DHT22;8517;53.546;10.104;2023-04-25T11:17:40;14.50;99.90
11221;DHT22;8517;53.546;10.104;2023-04-25T11:20:09;14.40;99.90
11221;DHT22;8517;53.546;10.104;2023-04-25T11:22:37;14.40;99.90
11221;DHT22;8517;53.546;10.104;2023-04-25T11:25:07;14.40;99.90
11221;DHT22;8517;53.546;10.104;2023-04-25T11:27:37;14.60;99.90
11221;DHT22;8517;53.546;10.104;2023-04-25T11:30:12;14.70;99.90
11221;DHT22;8517;53.546;10.104;2023-04-25T11:32:40;14.80;99.90
11221;DHT22;8517;53.546;10.104;2023-04-25T11:35:07;14.90;99.90
11221;DHT22;8517;53.546;10.104;2023-04-25T11:37:34;14.90;99.90
11221;DHT22;8517;53.546;10.104;2023-04-25T11:40:03;15.00;99.90
11221;DHT22;8517;53.546;10.104;2023-04-25T11:42:32;15.00;99.90
11221;DHT22;8517;53.546;10.104;2023-04-25T11:44:59;14.80;99.90
11221;DHT22;8517;53.546;10.104;2023-04-25T11:47:30;14.70;99.90
11221;DHT22;8517;53.546;10.104;2023-04-25T11:49:58;14.50;99.90
11221;DHT22;8517;53.546;10.104;2023-04-25T11:52:39;14.30;99.90
11221;DHT22;8517;53.546;10.104;2023-04-25T11:55:08;14.10;99.90
11221;DHT22;8517;53.546;10.104;2023-04-25T11:57:38;13.90;99.90
11221;DHT22;8517;53.546;10.104;2023-04-25T12:00:10;13.80;99.90
11221;DHT22;8517;53.546;10.104;2023-04-25T12:02:41;13.70;99.90
11221;DHT22;8517;53.546;10.104;2023-04-25T12:05:08;13.60;99.90
11221;DHT22;8517;53.546;10.104;2023-04-25T12:07:35;13.60;99.90
11221;DHT22;8517;53.546;10.104;2023-04-25T12:10:07;13.60;99.90
11221;DHT22;8517;53.546;10.104;2023-04-25T12:12:37;13.60;99.90
11221;DHT22;8517;53.546;10.104;2023-04-25T12:15:12;13.60;99.90
11221;DHT22;8517;53.546;10.104;2023-04-25T12:17:41;13.70;99.90
11221;DHT22;8517;53.546;10.104;2023-04-25T12:20:10;13.70;99.90
11221;DHT22;8517;53.546;10.104;2023-04-25T12:22:40;13.90;99.90
11221;DHT22;8517;53.546;10.104;2023-04-25T12:25:10;14.10;99.90
11221;DHT22;8517;53.546;10.104;2023-04-25T12:27:39;14.30;99.90
11221;DHT22;8517;53.546;10.104;2023-04-25T12:30:08;14.50;99.90
11221;DHT22;8517;53.546;10.104;2023-04-25T12:32:36;14.80;99.90
11221;DHT22;8517;53.546;10.104;2023-04-25T12:35:03;15.00;99.90
11221;DHT22;8517;53.546;10.104;2023-04-25T12:37:30;15.10;99.90
11221;DHT22;8517;53.546;10.104;2023-04-25T12:39:57;15.10;99.90
11221;DHT22;8517;53.546;10.104;2023-04-25T12:42:24;15.10;99.90
11221;DHT22;8517;53.546;10.104;2023-04-25T12:44:52;15.10;99.90
11221;DHT22;8517;53.546;10.104;2023-04-25T12:47:19;15.20;99.90
11221;DHT22;8517;53.546;10.104;2023-04-25T12:49:46;15.30;99.90
11221;DHT22;8517;53.546;10.104;2023-04-25T12:52:13;15.40;99.90
11221;DHT22;8517;53.546;10.104;2023-04-25T12:54:40;15.50;99.90
11221;DHT22;8517;53.546;10.104;2023-04-25T12:57:06;15.50;99.90
11221;DHT22;8517;53.546;10.104;2023-04-25T12:59:33;15.40;99.90
11221;DHT22;8517;53.546;10.104;2023-04-25T13:02:01;15.40;99.90
11221;DHT22;8517;53.546;10.104;2023-04-25T13:04:28;15.20;99.90
11221;DHT22;8517;53.546;10.104;2023-04-25T13:06:55;15.00;99.90
11221;DHT22;8517;53.546;10.104;2023-04-25T13:09:22;14.90;99.90
11221;DHT22;8517;53.546;10.104;2023-04-25T13:11:49;14.80;99.90
11221;DHT22;8517;53.546;10.104;2023-04-25T13:14:15;14.80;99.90
11221;DHT22;8517;53.546;10.104;2023-04-25T13:16:42;14.70;99.90
11221;DHT22;8517;53.546;10.104;2023-04-25T13:19:10;14.70;99.90
11221;DHT22;8517;53.546;10.104;2023-04-25T13:21:38;14.70;99.90
11221;DHT22;8517;53.546;10.104;2023-04-25T13:24:05;14.60;99.90
11221;DHT22;8517;53.546;10.104;2023-04-25T13:26:32;14.60;99.90
11221;DHT22;8517;53.546;10.104;2023-04-25T13:28:59;14.50;99.90
11221;DHT22;8517;53.546;10.104;2023-04-25T13:31:28;14.40;99.90
11221;DHT22;8517;53.546;10.104;2023-04-25T13:33:55;14.30;99.90
11221;DHT22;8517;53.546;10.104;2023-04-25T13:36:24;14.10;99.90
11221;DHT22;8517;53.546;10.104;2023-04-25T13:38:51;13.80;99.90
11221;DHT22;8517;53.546;10.104;2023-04-25T13:41:18;13.60;99.90
11221;DHT22;8517;53.546;10.104;2023-04-25T13:43:45;13.40;99.90
11221;DHT22;8517;53.546;10.104;2023-04-25T13:46:14;13.20;99.90
11221;DHT22;8517;53.546;10.104;2023-04-25T13:48:41;13.00;99.90
11221;DHT22;8517;53.546;10.104;2023-04-25T13:51:15;12.90;99.90
11221;DHT22;8517;53.546;10.104;2023-04-25T13:53:44;12.90;99.90
11221;DHT22;8517;53.546;10.104;2023-04-25T13:56:12;12.90;99.90
11221;DHT22;8517;53.546;10.104;2023-04-25T13:58:38;12.90;99.90
11221;DHT22;8517;53.546;10.104;2023-04-25T14:01:05;13.00;99.90
11221;DHT22;8517;53.546;10.104;2023-04-25T14:03:33;12.90;99.90
11221;DHT22;8517;53.546;10.104;2023-04-25T14:05:59;12.80;99.90
11221;DHT22;8517;53.546;10.104;2023-04-25T14:08:27;12.70;99.90
11221;DHT22;8517;53.546;10.104;2023-04-25T14:10:55;12.50;99.90
11221;DHT22;8517;53.546;10.104;2023-04-25T14:13:23;12.30;99.90
11221;DHT22;8517;53.546;10.104;2023-04-25T14:15:50;12.20;99.90
11221;DHT22;8517;53.546;10.104;2023-04-25T14:18:17;12.00;99.90
11221;DHT22;8517;53.546;10.104;2023-04-25T14:20:44;11.90;99.90
11221;DHT22;8517;53.546;10.104;2023-04-25T14:23:11;11.90;99.90
11221;DHT22;8517;53.546;10.104;2023-04-25T14:25:38;11.80;99.90
11221;DHT22;8517;53.546;10.104;2023-04-25T14:28:06;11.90;99.90
11221;DHT22;8517;53.546;10.104;2023-04-25T14:30:33;11.90;99.90
11221;DHT22;8517;53.546;10.104;2023-04-25T14:32:59;12.00;99.90
11221;DHT22;8517;53.546;10.104;2023-04-25T14:35:26;12.10;99.90
11221;DHT22;8517;53.546;10.104;2023-04-25T14:37:53;12.10;99.90
11221;DHT22;8517;53.546;10.104;2023-04-25T14:40:20;12.20;99.90
11221;DHT22;8517;53.546;10.104;2023-04-25T14:42:48;12.30;99.90
11221;DHT22;8517;53.546;10.104;2023-04-25T14:45:16;12.40;99.90
11221;DHT22;8517;53.546;10.104;2023-04-25T14:47:43;12.40;99.90
11221;DHT22;8517;53.546;10.104;2023-04-25T14:50:10;12.50;99.90
11221;DHT22;8517;53.546;10.104;2023-04-25T14:52:37;12.40;99.90
11221;DHT22;8517;53.546;10.104;2023-04-25T14:55:04;12.50;99.90
11221;DHT22;8517;53.546;10.104;2023-04-25T14:57:33;12.40;99.90
11221;DHT22;8517;53.546;10.104;2023-04-25T15:00:00;12.50;99.90
11221;DHT22;8517;53.546;10.104;2023-04-25T15:02:29;12.50;99.90
11221;DHT22;8517;53.546;10.104;2023-04-25T15:04:56;12.50;99.90
11221;DHT22;8517;53.546;10.104;2023-04-25T15:07:23;12.50;99.90
11221;DHT22;8517;53.546;10.104;2023-04-25T15:09:50;12.50;99.90
11221;DHT22;8517;53.546;10.104;2023-04-25T15:12:18;12.40;99.90
11221;DHT22;8517;53.546;10.104;2023-04-25T15:14:45;12.50;99.90
11221;DHT22;8517;53.546;10.104;2023-04-25T15:17:12;12.50;99.90
11221;DHT22;8517;53.546;10.104;2023-04-25T15:19:41;12.50;99.90
11221;DHT22;8517;53.546;10.104;2023-04-25T15:22:07;12.50;99.90
11221;DHT22;8517;53.546;10.104;2023-04-25T15:24:34;12.50;99.90
11221;DHT22;8517;53.546;10.104;2023-04-25T15:27:01;12.50;99.90
11221;DHT22;8517;53.546;10.104;2023-04-25T15:29:29;12.50;99.90
11221;DHT22;8517;53.546;10.104;2023-04-25T15:31:56;12.50;99.90
11221;DHT22;8517;53.546;10.104;2023-04-25T15:34:23;12.60;99.90
11221;DHT22;8517;53.546;10.104;2023-04-25T15:36:51;12.60;99.90